Sunday, July 22, 2018, 10:17 AM EDT
Back to Local

KHPN, White Plains Westchester

Location: Greenwich, NY, United States Lat: 41.067
Local Time: 10:17 AM EDT (14:17 GMT) Lon: -73.7
Time Zone: US/Eastern Elev: 439 ft

Show me the last for .
Show Decoded

2018-07-22 10:01 METAR KHPN 221401Z 16011G16KT 4SM BR BKN004 OVC013 22/21 A2992 RMK AO2 T02220211
                 =
2018-07-22 09:56 METAR KHPN 221356Z COR 17007KT 4SM BR BKN004 BKN013 22/21 A2992 RMK AO2 SLP128
                 T02220211 =
2018-07-22 08:56 METAR KHPN 221256Z 14014G21KT 1 1/2SM BR VV004 22/21 A2990 RMK AO2 SLP119
                 T02170206 =
2018-07-22 07:56 METAR KHPN 221156Z 13011KT 3SM BR BKN004 OVC014 22/21 A2988 RMK AO2 RAE54 SLP113
                 P0000 60045 70084 T02220211 10222 20194 53020 =
2018-07-22 06:56 METAR KHPN 221056Z 13013KT 4SM -RA BR BKN003 OVC012 22/22 A2985 RMK AO2 SLP103
                 P0001 T02220217 =
2018-07-22 05:56 METAR KHPN 220956Z 12014G21KT 3SM -RA BR VV002 22/22 A2983 RMK AO2 SLP097 P0008
                 T02170217 =
2018-07-22 05:14 METAR KHPN 220914Z 11013G19KT 4SM RA BR OVC003 21/21 A2982 RMK AO2 P0005
                 T02110211 =
2018-07-22 05:04 METAR KHPN 220904Z 11015G23KT 2SM RA BR OVC003 21/21 A2982 RMK AO2 P0004
                 T02110206 =
2018-07-22 04:56 METAR KHPN 220856Z 11012G23KT 4SM RA BR OVC003 21/21 A2982 RMK AO2 PK WND
                 08028/0812 SLP093 P0012 60036 T02110206 56023 =
2018-07-22 04:33 METAR KHPN 220833Z 11014G21KT 6SM RA BR OVC003 21/21 A2982 RMK AO2 PK WND
                 08028/0812 CIG 002V008 P0009 T02110206 =
2018-07-22 04:23 METAR KHPN 220823Z 11013G22KT 4SM RA BR OVC005 21/20 A2982 RMK AO2 PK WND
                 08028/0812 CIG 003V006 P0008 T02060200 =
2018-07-22 03:56 METAR KHPN 220756Z 09013G26KT 3SM RA BR OVC004 20/19 A2983 RMK AO2 PK WND
                 09028/0728 SLP097 P0009 T02000194 =
2018-07-22 02:56 METAR KHPN 220656Z 09014G28KT 3SM RA BR OVC003 20/19 A2985 RMK AO2 PK WND
                 09028/0653 SLP102 P0015 T02000194 =
2018-07-22 01:56 METAR KHPN 220556Z 09014G28KT 6SM -RA BR OVC003 19/19 A2989 RMK AO2 PK WND
                 10028/0554 SLP116 P0020 60039 T01940189 10200 20172 56023 =
2018-07-22 00:56 METAR KHPN 220456Z 09016G25KT 5SM -RA BR OVC003 19/18 A2991 RMK AO2 PK WND
                 09026/0419 SLP123 P0005 T01940183 402440167 =
2018-07-21 23:56 METAR KHPN 220356Z 09016G23KT 6SM -RA BR BKN005 OVC008 19/18 A2992 RMK AO2
                 SLP129 P0003 T01890183 =
2018-07-21 22:56 METAR KHPN 220256Z 09010KT 2SM -RA BR OVC005 18/17 A2996 RMK AO2 SLP140 P0006
                 60011 T01780172 58015 =
2018-07-21 22:52 METAR KHPN 220252Z 08012KT 2SM -RA BR OVC005 18/17 A2996 RMK AO2 P0006 =
2018-07-21 21:56 METAR KHPN 220156Z 08009KT 4SM RA BR OVC020 17/16 A2998 RMK AO2 SLP149 P0005
                 T01720161 =
2018-07-21 21:36 METAR KHPN 220136Z COR 08013G19KT 2SM RA BR OVC020 18/15 A2999 RMK AO2 P0001
                 T01830150 =
2018-07-21 20:56 METAR KHPN 220056Z 09012G20KT 060V120 10SM -RA BKN020 OVC035 19/14 A2999 RMK AO2
                 RAB02 SLP151 P0000 T01940144 =
2018-07-21 19:56 METAR KHPN 212356Z 09011G17KT 10SM BKN035 OVC050 20/14 A3000 RMK AO2 SLP155
                 T02000144 10244 20200 58013 =
2018-07-21 18:56 METAR KHPN 212256Z 08008G16KT 040V110 10SM SCT048 20/14 A3002 RMK AO2 SLP161
                 T02000144 =
2018-07-21 17:56 METAR KHPN 212156Z 08010G17KT 10SM SCT020 20/14 A3003 RMK AO2 SLP165 T02000144 =
2018-07-21 16:56 METAR KHPN 212056Z 09015G21KT 10SM FEW020 21/14 A3004 RMK AO2 SLP169 T02110144
                 58009 =
2018-07-21 15:56 METAR KHPN 211956Z 07013G18KT 10SM FEW030 22/14 A3005 RMK AO2 SLP171 T02170144 =
2018-07-21 14:56 METAR KHPN 211856Z 08011G18KT 10SM FEW030 23/14 A3006 RMK AO2 SLP176 T02280144 =
2018-07-21 13:56 METAR KHPN 211756Z 09011KT 10SM FEW030 FEW060 23/14 A3007 RMK AO2 SLP178
                 T02330144 10239 20194 58014 =
2018-07-21 12:56 METAR KHPN 211656Z 10010G17KT 10SM FEW030 23/13 A3009 RMK AO2 SLP187 T02280128 =
2018-07-21 11:56 METAR KHPN 211556Z 10009KT 10SM FEW030 23/13 A3011 RMK AO2 SLP191 T02280133 =
2018-07-21 10:56 METAR KHPN 211456Z 11012KT 10SM FEW030 22/11 A3011 RMK AO2 SLP191 T02220106
                 50002 =

Support USWX by starting your Amazon purchase here.